sensor_id;sensor_type;location;lat;lon;timestamp;P1;durP1;ratioP1;P2;durP2;ratioP2
11394;SDS011;5753;54.402;10.220;2023-05-07T00:01:55;28.17;;;9.25;;
11394;SDS011;5753;54.402;10.220;2023-05-07T00:04:22;15.23;;;11.00;;
11394;SDS011;5753;54.402;10.220;2023-05-07T00:06:48;13.45;;;8.10;;
11394;SDS011;5753;54.402;10.220;2023-05-07T00:09:14;14.00;;;9.32;;
11394;SDS011;5753;54.402;10.220;2023-05-07T00:11:41;19.13;;;8.68;;
11394;SDS011;5753;54.402;10.220;2023-05-07T00:14:07;23.23;;;10.27;;
11394;SDS011;5753;54.402;10.220;2023-05-07T00:16:33;14.63;;;8.73;;
11394;SDS011;5753;54.402;10.220;2023-05-07T00:19:00;14.60;;;10.35;;
11394;SDS011;5753;54.402;10.220;2023-05-07T00:21:26;19.77;;;11.57;;
11394;SDS011;5753;54.402;10.220;2023-05-07T00:23:52;17.42;;;10.48;;
11394;SDS011;5753;54.402;10.220;2023-05-07T00:26:19;23.85;;;11.38;;
11394;SDS011;5753;54.402;10.220;2023-05-07T00:28:45;22.65;;;12.45;;
11394;SDS011;5753;54.402;10.220;2023-05-07T00:31:12;16.85;;;10.30;;
11394;SDS011;5753;54.402;10.220;2023-05-07T00:33:38;18.58;;;10.68;;
11394;SDS011;5753;54.402;10.220;2023-05-07T00:36:04;9.68;;;7.20;;
11394;SDS011;5753;54.402;10.220;2023-05-07T00:38:30;11.65;;;9.57;;
11394;SDS011;5753;54.402;10.220;2023-05-07T00:40:56;18.73;;;12.52;;
11394;SDS011;5753;54.402;10.220;2023-05-07T00:43:22;13.05;;;10.40;;
11394;SDS011;5753;54.402;10.220;2023-05-07T00:45:48;23.52;;;14.13;;
11394;SDS011;5753;54.402;10.220;2023-05-07T00:48:15;16.55;;;11.32;;
11394;SDS011;5753;54.402;10.220;2023-05-07T00:50:42;18.02;;;9.93;;
11394;SDS011;5753;54.402;10.220;2023-05-07T00:53:09;20.27;;;10.77;;
11394;SDS011;5753;54.402;10.220;2023-05-07T00:55:35;12.98;;;10.60;;
11394;SDS011;5753;54.402;10.220;2023-05-07T00:58:02;17.55;;;11.35;;
11394;SDS011;5753;54.402;10.220;2023-05-07T01:00:28;14.00;;;11.38;;
11394;SDS011;5753;54.402;10.220;2023-05-07T01:02:54;15.60;;;12.07;;
11394;SDS011;5753;54.402;10.220;2023-05-07T01:05:20;16.13;;;12.75;;
11394;SDS011;5753;54.402;10.220;2023-05-07T01:07:48;16.65;;;11.43;;
11394;SDS011;5753;54.402;10.220;2023-05-07T01:10:17;24.98;;;12.43;;
11394;SDS011;5753;54.402;10.220;2023-05-07T01:12:43;14.30;;;10.18;;
11394;SDS011;5753;54.402;10.220;2023-05-07T01:15:12;19.15;;;10.05;;
11394;SDS011;5753;54.402;10.220;2023-05-07T01:17:39;16.17;;;11.82;;
11394;SDS011;5753;54.402;10.220;2023-05-07T01:20:06;17.55;;;11.50;;
11394;SDS011;5753;54.402;10.220;2023-05-07T01:22:35;23.20;;;14.15;;
11394;SDS011;5753;54.402;10.220;2023-05-07T01:25:05;14.05;;;10.40;;
11394;SDS011;5753;54.402;10.220;2023-05-07T01:27:33;12.75;;;9.52;;
11394;SDS011;5753;54.402;10.220;2023-05-07T01:30:00;17.88;;;11.55;;
11394;SDS011;5753;54.402;10.220;2023-05-07T01:32:32;13.38;;;10.98;;
11394;SDS011;5753;54.402;10.220;2023-05-07T01:35:12;19.83;;;12.07;;
11394;SDS011;5753;54.402;10.220;2023-05-07T01:37:43;13.05;;;9.48;;
11394;SDS011;5753;54.402;10.220;2023-05-07T01:40:10;16.80;;;10.05;;
11394;SDS011;5753;54.402;10.220;2023-05-07T01:42:36;10.13;;;8.93;;
11394;SDS011;5753;54.402;10.220;2023-05-07T01:45:03;11.18;;;9.93;;
11394;SDS011;5753;54.402;10.220;2023-05-07T01:47:29;14.30;;;11.27;;
11394;SDS011;5753;54.402;10.220;2023-05-07T01:49:56;10.68;;;9.57;;
11394;SDS011;5753;54.402;10.220;2023-05-07T01:52:23;17.60;;;9.95;;
11394;SDS011;5753;54.402;10.220;2023-05-07T01:54:50;20.83;;;10.90;;
11394;SDS011;5753;54.402;10.220;2023-05-07T01:57:16;14.82;;;10.77;;
11394;SDS011;5753;54.402;10.220;2023-05-07T01:59:42;14.05;;;10.65;;
11394;SDS011;5753;54.402;10.220;2023-05-07T02:02:08;14.23;;;7.88;;
11394;SDS011;5753;54.402;10.220;2023-05-07T02:04:34;16.25;;;10.57;;
11394;SDS011;5753;54.402;10.220;2023-05-07T02:07:01;12.82;;;9.57;;
11394;SDS011;5753;54.402;10.220;2023-05-07T02:09:27;17.20;;;10.70;;
11394;SDS011;5753;54.402;10.220;2023-05-07T02:11:53;15.52;;;11.10;;
11394;SDS011;5753;54.402;10.220;2023-05-07T02:14:19;14.75;;;11.80;;
11394;SDS011;5753;54.402;10.220;2023-05-07T02:16:45;16.10;;;11.35;;
11394;SDS011;5753;54.402;10.220;2023-05-07T02:19:11;10.43;;;8.95;;
11394;SDS011;5753;54.402;10.220;2023-05-07T02:21:37;14.00;;;9.25;;
11394;SDS011;5753;54.402;10.220;2023-05-07T02:24:04;14.82;;;10.13;;
11394;SDS011;5753;54.402;10.220;2023-05-07T02:26:30;22.02;;;11.82;;
11394;SDS011;5753;54.402;10.220;2023-05-07T02:28:56;14.35;;;11.07;;
11394;SDS011;5753;54.402;10.220;2023-05-07T02:31:22;13.57;;;9.32;;
11394;SDS011;5753;54.402;10.220;2023-05-07T02:33:48;12.98;;;11.68;;
11394;SDS011;5753;54.402;10.220;2023-05-07T02:36:14;12.48;;;9.07;;
11394;SDS011;5753;54.402;10.220;2023-05-07T02:38:41;11.80;;;8.75;;
11394;SDS011;5753;54.402;10.220;2023-05-07T02:41:07;11.00;;;9.35;;
11394;SDS011;5753;54.402;10.220;2023-05-07T02:43:33;15.27;;;9.38;;
11394;SDS011;5753;54.402;10.220;2023-05-07T02:48:29;12.32;;;9.95;;
11394;SDS011;5753;54.402;10.220;2023-05-07T02:50:55;11.90;;;9.02;;
11394;SDS011;5753;54.402;10.220;2023-05-07T02:53:22;14.35;;;11.23;;
11394;SDS011;5753;54.402;10.220;2023-05-07T02:55:50;13.73;;;11.88;;
11394;SDS011;5753;54.402;10.220;2023-05-07T02:58:17;16.15;;;10.10;;
11394;SDS011;5753;54.402;10.220;2023-05-07T03:00:43;16.27;;;9.23;;
11394;SDS011;5753;54.402;10.220;2023-05-07T03:03:10;12.65;;;10.23;;
11394;SDS011;5753;54.402;10.220;2023-05-07T03:05:36;12.57;;;8.95;;
11394;SDS011;5753;54.402;10.220;2023-05-07T03:08:02;12.07;;;8.98;;
11394;SDS011;5753;54.402;10.220;2023-05-07T03:10:29;12.82;;;8.77;;
11394;SDS011;5753;54.402;10.220;2023-05-07T03:12:55;14.27;;;9.98;;
11394;SDS011;5753;54.402;10.220;2023-05-07T03:15:21;11.93;;;8.88;;
11394;SDS011;5753;54.402;10.220;2023-05-07T03:17:47;10.77;;;8.32;;
11394;SDS011;5753;54.402;10.220;2023-05-07T03:20:14;11.80;;;9.00;;
11394;SDS011;5753;54.402;10.220;2023-05-07T03:22:40;10.57;;;8.25;;
11394;SDS011;5753;54.402;10.220;2023-05-07T03:25:06;14.32;;;9.13;;
11394;SDS011;5753;54.402;10.220;2023-05-07T03:27:33;15.02;;;9.57;;
11394;SDS011;5753;54.402;10.220;2023-05-07T03:29:59;10.40;;;8.52;;
11394;SDS011;5753;54.402;10.220;2023-05-07T03:32:25;13.98;;;9.35;;
11394;SDS011;5753;54.402;10.220;2023-05-07T03:34:52;10.27;;;8.20;;
11394;SDS011;5753;54.402;10.220;2023-05-07T03:37:18;12.27;;;8.25;;
11394;SDS011;5753;54.402;10.220;2023-05-07T03:39:44;8.40;;;6.20;;
11394;SDS011;5753;54.402;10.220;2023-05-07T03:42:10;12.45;;;9.15;;
11394;SDS011;5753;54.402;10.220;2023-05-07T03:44:36;7.13;;;6.43;;
11394;SDS011;5753;54.402;10.220;2023-05-07T03:47:02;10.38;;;7.85;;
11394;SDS011;5753;54.402;10.220;2023-05-07T03:49:29;8.73;;;7.13;;
11394;SDS011;5753;54.402;10.220;2023-05-07T03:51:55;10.27;;;8.38;;
11394;SDS011;5753;54.402;10.220;2023-05-07T03:54:21;14.85;;;8.85;;
11394;SDS011;5753;54.402;10.220;2023-05-07T03:56:47;9.70;;;8.15;;
11394;SDS011;5753;54.402;10.220;2023-05-07T03:59:13;12.02;;;7.85;;
11394;SDS011;5753;54.402;10.220;2023-05-07T04:01:40;10.23;;;8.88;;
11394;SDS011;5753;54.402;10.220;2023-05-07T04:04:06;10.63;;;9.32;;
11394;SDS011;5753;54.402;10.220;2023-05-07T04:06:32;13.98;;;8.35;;
11394;SDS011;5753;54.402;10.220;2023-05-07T04:08:58;10.73;;;8.57;;
11394;SDS011;5753;54.402;10.220;2023-05-07T04:11:24;11.88;;;10.10;;
11394;SDS011;5753;54.402;10.220;2023-05-07T04:13:50;16.13;;;9.50;;
11394;SDS011;5753;54.402;10.220;2023-05-07T04:16:16;11.45;;;8.85;;
11394;SDS011;5753;54.402;10.220;2023-05-07T04:18:43;12.77;;;9.52;;
11394;SDS011;5753;54.402;10.220;2023-05-07T04:21:15;15.63;;;10.45;;
11394;SDS011;5753;54.402;10.220;2023-05-07T04:23:43;11.05;;;9.15;;
11394;SDS011;5753;54.402;10.220;2023-05-07T04:26:09;12.93;;;10.98;;
11394;SDS011;5753;54.402;10.220;2023-05-07T04:28:36;13.05;;;11.75;;
11394;SDS011;5753;54.402;10.220;2023-05-07T04:31:03;11.65;;;8.07;;
11394;SDS011;5753;54.402;10.220;2023-05-07T04:33:29;13.70;;;7.07;;
11394;SDS011;5753;54.402;10.220;2023-05-07T04:35:55;9.75;;;7.78;;
11394;SDS011;5753;54.402;10.220;2023-05-07T04:38:22;8.82;;;6.57;;
11394;SDS011;5753;54.402;10.220;2023-05-07T04:40:48;11.40;;;9.18;;
11394;SDS011;5753;54.402;10.220;2023-05-07T04:43:14;8.65;;;7.75;;
11394;SDS011;5753;54.402;10.220;2023-05-07T04:45:41;12.13;;;7.47;;
11394;SDS011;5753;54.402;10.220;2023-05-07T04:48:08;9.88;;;7.03;;
11394;SDS011;5753;54.402;10.220;2023-05-07T04:50:34;8.85;;;7.95;;
11394;SDS011;5753;54.402;10.220;2023-05-07T04:53:01;9.73;;;8.23;;
11394;SDS011;5753;54.402;10.220;2023-05-07T04:55:27;9.43;;;8.48;;
11394;SDS011;5753;54.402;10.220;2023-05-07T04:57:54;9.60;;;7.22;;
11394;SDS011;5753;54.402;10.220;2023-05-07T05:00:20;9.65;;;7.32;;
11394;SDS011;5753;54.402;10.220;2023-05-07T05:02:46;9.90;;;7.78;;
11394;SDS011;5753;54.402;10.220;2023-05-07T05:05:12;10.57;;;7.63;;
11394;SDS011;5753;54.402;10.220;2023-05-07T05:07:38;9.75;;;7.82;;
11394;SDS011;5753;54.402;10.220;2023-05-07T05:10:04;11.50;;;9.55;;
11394;SDS011;5753;54.402;10.220;2023-05-07T05:12:31;13.23;;;7.90;;
11394;SDS011;5753;54.402;10.220;2023-05-07T05:14:57;9.88;;;8.85;;
11394;SDS011;5753;54.402;10.220;2023-05-07T05:17:23;13.23;;;9.80;;
11394;SDS011;5753;54.402;10.220;2023-05-07T05:19:49;10.48;;;8.57;;
11394;SDS011;5753;54.402;10.220;2023-05-07T05:22:15;8.70;;;7.82;;
11394;SDS011;5753;54.402;10.220;2023-05-07T05:24:41;10.57;;;7.43;;
11394;SDS011;5753;54.402;10.220;2023-05-07T05:27:07;9.20;;;7.68;;
11394;SDS011;5753;54.402;10.220;2023-05-07T05:29:34;6.82;;;6.07;;
11394;SDS011;5753;54.402;10.220;2023-05-07T05:32:00;8.73;;;7.25;;
11394;SDS011;5753;54.402;10.220;2023-05-07T05:34:26;10.50;;;8.13;;
11394;SDS011;5753;54.402;10.220;2023-05-07T05:36:52;11.90;;;8.63;;
11394;SDS011;5753;54.402;10.220;2023-05-07T05:39:18;9.20;;;7.55;;
11394;SDS011;5753;54.402;10.220;2023-05-07T05:41:44;7.40;;;6.70;;
11394;SDS011;5753;54.402;10.220;2023-05-07T05:44:10;9.63;;;6.38;;
11394;SDS011;5753;54.402;10.220;2023-05-07T05:46:37;11.10;;;7.97;;
11394;SDS011;5753;54.402;10.220;2023-05-07T05:49:03;9.13;;;8.02;;
11394;SDS011;5753;54.402;10.220;2023-05-07T05:51:29;12.25;;;7.13;;
11394;SDS011;5753;54.402;10.220;2023-05-07T05:53:55;9.93;;;8.50;;
11394;SDS011;5753;54.402;10.220;2023-05-07T05:56:21;7.25;;;6.50;;
11394;SDS011;5753;54.402;10.220;2023-05-07T05:58:47;8.77;;;7.88;;
11394;SDS011;5753;54.402;10.220;2023-05-07T06:01:13;6.70;;;6.05;;
11394;SDS011;5753;54.402;10.220;2023-05-07T06:03:40;23.08;;;7.80;;
11394;SDS011;5753;54.402;10.220;2023-05-07T06:06:06;10.18;;;6.72;;
11394;SDS011;5753;54.402;10.220;2023-05-07T06:08:32;11.80;;;9.38;;
11394;SDS011;5753;54.402;10.220;2023-05-07T06:10:58;8.85;;;7.80;;
11394;SDS011;5753;54.402;10.220;2023-05-07T06:13:26;8.73;;;7.28;;
11394;SDS011;5753;54.402;10.220;2023-05-07T06:15:52;9.40;;;8.27;;
11394;SDS011;5753;54.402;10.220;2023-05-07T06:18:18;7.47;;;6.50;;
11394;SDS011;5753;54.402;10.220;2023-05-07T06:20:44;7.22;;;5.95;;
11394;SDS011;5753;54.402;10.220;2023-05-07T06:23:10;9.82;;;7.90;;
11394;SDS011;5753;54.402;10.220;2023-05-07T06:25:36;10.02;;;6.03;;
11394;SDS011;5753;54.402;10.220;2023-05-07T06:28:02;8.68;;;6.82;;
11394;SDS011;5753;54.402;10.220;2023-05-07T06:30:28;10.23;;;7.85;;
11394;SDS011;5753;54.402;10.220;2023-05-07T06:32:54;9.65;;;7.60;;
11394;SDS011;5753;54.402;10.220;2023-05-07T06:35:20;8.68;;;7.35;;
11394;SDS011;5753;54.402;10.220;2023-05-07T06:37:47;10.48;;;9.13;;
11394;SDS011;5753;54.402;10.220;2023-05-07T06:40:13;9.15;;;7.40;;
11394;SDS011;5753;54.402;10.220;2023-05-07T06:42:39;8.82;;;7.38;;
11394;SDS011;5753;54.402;10.220;2023-05-07T06:45:05;9.57;;;7.53;;
11394;SDS011;5753;54.402;10.220;2023-05-07T06:47:32;11.13;;;8.30;;
11394;SDS011;5753;54.402;10.220;2023-05-07T06:49:58;8.30;;;7.30;;
11394;SDS011;5753;54.402;10.220;2023-05-07T06:52:24;12.00;;;8.05;;
11394;SDS011;5753;54.402;10.220;2023-05-07T06:54:51;8.27;;;6.22;;
11394;SDS011;5753;54.402;10.220;2023-05-07T06:57:17;10.98;;;7.50;;
11394;SDS011;5753;54.402;10.220;2023-05-07T06:59:43;11.82;;;8.07;;
11394;SDS011;5753;54.402;10.220;2023-05-07T07:02:09;9.70;;;7.45;;
11394;SDS011;5753;54.402;10.220;2023-05-07T07:04:35;13.63;;;6.65;;
11394;SDS011;5753;54.402;10.220;2023-05-07T07:07:01;6.97;;;6.15;;
11394;SDS011;5753;54.402;10.220;2023-05-07T07:09:27;7.30;;;6.35;;
11394;SDS011;5753;54.402;10.220;2023-05-07T07:11:53;5.55;;;4.97;;
11394;SDS011;5753;54.402;10.220;2023-05-07T07:14:19;10.93;;;6.30;;
11394;SDS011;5753;54.402;10.220;2023-05-07T07:16:45;6.65;;;5.35;;
11394;SDS011;5753;54.402;10.220;2023-05-07T07:19:11;7.28;;;6.25;;
11394;SDS011;5753;54.402;10.220;2023-05-07T07:21:40;17.67;;;7.28;;
11394;SDS011;5753;54.402;10.220;2023-05-07T07:24:06;6.72;;;5.53;;
11394;SDS011;5753;54.402;10.220;2023-05-07T07:26:32;9.48;;;7.10;;
11394;SDS011;5753;54.402;10.220;2023-05-07T07:28:58;8.38;;;6.20;;
11394;SDS011;5753;54.402;10.220;2023-05-07T07:31:24;7.28;;;5.93;;
11394;SDS011;5753;54.402;10.220;2023-05-07T07:33:51;6.88;;;5.70;;
11394;SDS011;5753;54.402;10.220;2023-05-07T07:36:17;7.63;;;6.93;;
11394;SDS011;5753;54.402;10.220;2023-05-07T07:38:43;7.68;;;6.28;;
11394;SDS011;5753;54.402;10.220;2023-05-07T07:41:09;6.88;;;5.53;;
11394;SDS011;5753;54.402;10.220;2023-05-07T07:43:35;7.82;;;5.55;;
11394;SDS011;5753;54.402;10.220;2023-05-07T07:46:01;6.45;;;5.82;;
11394;SDS011;5753;54.402;10.220;2023-05-07T07:48:27;8.02;;;6.60;;
11394;SDS011;5753;54.402;10.220;2023-05-07T07:50:53;6.82;;;6.22;;
11394;SDS011;5753;54.402;10.220;2023-05-07T07:53:19;7.03;;;6.38;;
11394;SDS011;5753;54.402;10.220;2023-05-07T07:55:46;6.20;;;5.60;;
11394;SDS011;5753;54.402;10.220;2023-05-07T07:58:12;7.32;;;6.65;;
11394;SDS011;5753;54.402;10.220;2023-05-07T08:00:38;8.05;;;5.53;;
11394;SDS011;5753;54.402;10.220;2023-05-07T08:03:04;7.53;;;6.32;;
11394;SDS011;5753;54.402;10.220;2023-05-07T08:05:32;6.55;;;5.78;;
11394;SDS011;5753;54.402;10.220;2023-05-07T08:07:58;5.18;;;4.57;;
11394;SDS011;5753;54.402;10.220;2023-05-07T08:10:24;10.98;;;6.30;;
11394;SDS011;5753;54.402;10.220;2023-05-07T08:12:50;7.32;;;5.57;;
11394;SDS011;5753;54.402;10.220;2023-05-07T08:15:16;8.13;;;6.50;;
11394;SDS011;5753;54.402;10.220;2023-05-07T08:17:43;7.38;;;5.55;;
11394;SDS011;5753;54.402;10.220;2023-05-07T08:20:09;9.27;;;5.65;;
11394;SDS011;5753;54.402;10.220;2023-05-07T08:22:35;7.95;;;6.40;;
11394;SDS011;5753;54.402;10.220;2023-05-07T08:25:02;6.10;;;5.53;;
11394;SDS011;5753;54.402;10.220;2023-05-07T08:27:28;5.78;;;5.10;;
11394;SDS011;5753;54.402;10.220;2023-05-07T08:29:54;6.13;;;5.13;;
11394;SDS011;5753;54.402;10.220;2023-05-07T08:32:21;6.30;;;5.68;;
11394;SDS011;5753;54.402;10.220;2023-05-07T08:34:47;5.50;;;4.90;;
11394;SDS011;5753;54.402;10.220;2023-05-07T08:37:13;6.43;;;5.53;;
11394;SDS011;5753;54.402;10.220;2023-05-07T08:39:40;5.40;;;3.92;;
11394;SDS011;5753;54.402;10.220;2023-05-07T08:42:06;8.00;;;4.30;;
11394;SDS011;5753;54.402;10.220;2023-05-07T08:44:34;7.43;;;5.03;;
11394;SDS011;5753;54.402;10.220;2023-05-07T08:47:03;5.43;;;4.25;;
11394;SDS011;5753;54.402;10.220;2023-05-07T08:49:33;6.65;;;4.60;;
11394;SDS011;5753;54.402;10.220;2023-05-07T08:52:00;6.10;;;4.88;;
11394;SDS011;5753;54.402;10.220;2023-05-07T08:54:26;5.10;;;4.60;;
11394;SDS011;5753;54.402;10.220;2023-05-07T08:56:54;7.93;;;5.85;;
11394;SDS011;5753;54.402;10.220;2023-05-07T08:59:20;6.57;;;4.45;;
11394;SDS011;5753;54.402;10.220;2023-05-07T09:01:46;6.53;;;5.88;;
11394;SDS011;5753;54.402;10.220;2023-05-07T09:04:12;5.57;;;5.07;;
11394;SDS011;5753;54.402;10.220;2023-05-07T09:06:38;5.22;;;4.07;;
11394;SDS011;5753;54.402;10.220;2023-05-07T09:09:06;6.38;;;5.13;;
11394;SDS011;5753;54.402;10.220;2023-05-07T09:11:33;6.32;;;5.82;;
11394;SDS011;5753;54.402;10.220;2023-05-07T09:13:59;6.82;;;5.28;;
11394;SDS011;5753;54.402;10.220;2023-05-07T09:16:29;15.63;;;6.43;;
11394;SDS011;5753;54.402;10.220;2023-05-07T09:18:57;6.95;;;4.45;;
11394;SDS011;5753;54.402;10.220;2023-05-07T09:21:25;5.75;;;5.22;;
11394;SDS011;5753;54.402;10.220;2023-05-07T09:23:52;6.47;;;4.68;;
11394;SDS011;5753;54.402;10.220;2023-05-07T09:26:22;5.70;;;5.25;;
11394;SDS011;5753;54.402;10.220;2023-05-07T09:28:49;3.97;;;3.53;;
11394;SDS011;5753;54.402;10.220;2023-05-07T09:31:16;6.45;;;4.53;;
11394;SDS011;5753;54.402;10.220;2023-05-07T09:33:43;4.50;;;4.10;;
11394;SDS011;5753;54.402;10.220;2023-05-07T09:36:09;4.72;;;4.32;;
11394;SDS011;5753;54.402;10.220;2023-05-07T09:38:36;5.32;;;4.82;;
11394;SDS011;5753;54.402;10.220;2023-05-07T09:43:36;5.15;;;4.65;;
11394;SDS011;5753;54.402;10.220;2023-05-07T09:46:13;6.85;;;4.72;;
11394;SDS011;5753;54.402;10.220;2023-05-07T09:48:41;6.68;;;4.43;;
11394;SDS011;5753;54.402;10.220;2023-05-07T09:53:53;4.55;;;4.13;;
11394;SDS011;5753;54.402;10.220;2023-05-07T09:56:21;5.60;;;4.47;;
11394;SDS011;5753;54.402;10.220;2023-05-07T09:58:47;5.68;;;4.82;;
11394;SDS011;5753;54.402;10.220;2023-05-07T10:01:15;5.15;;;4.35;;
11394;SDS011;5753;54.402;10.220;2023-05-07T10:03:46;5.17;;;4.67;;
11394;SDS011;5753;54.402;10.220;2023-05-07T10:06:15;6.40;;;3.83;;
11394;SDS011;5753;54.402;10.220;2023-05-07T10:08:42;7.18;;;4.93;;
11394;SDS011;5753;54.402;10.220;2023-05-07T10:11:09;5.13;;;4.65;;
11394;SDS011;5753;54.402;10.220;2023-05-07T10:13:35;4.68;;;3.90;;
11394;SDS011;5753;54.402;10.220;2023-05-07T10:16:03;6.13;;;4.50;;
11394;SDS011;5753;54.402;10.220;2023-05-07T10:18:30;4.63;;;3.15;;
11394;SDS011;5753;54.402;10.220;2023-05-07T10:23:33;6.60;;;4.03;;
11394;SDS011;5753;54.402;10.220;2023-05-07T10:26:04;4.47;;;3.67;;
11394;SDS011;5753;54.402;10.220;2023-05-07T10:28:34;5.20;;;3.00;;
11394;SDS011;5753;54.402;10.220;2023-05-07T10:31:23;4.80;;;2.95;;
11394;SDS011;5753;54.402;10.220;2023-05-07T10:33:53;6.00;;;3.22;;
11394;SDS011;5753;54.402;10.220;2023-05-07T10:36:21;10.68;;;4.00;;
11394;SDS011;5753;54.402;10.220;2023-05-07T10:38:48;11.52;;;3.33;;
11394;SDS011;5753;54.402;10.220;2023-05-07T10:41:15;4.05;;;3.63;;
11394;SDS011;5753;54.402;10.220;2023-05-07T10:43:44;3.78;;;3.47;;
11394;SDS011;5753;54.402;10.220;2023-05-07T10:46:16;3.88;;;3.58;;
11394;SDS011;5753;54.402;10.220;2023-05-07T10:51:30;2.50;;;2.30;;
11394;SDS011;5753;54.402;10.220;2023-05-07T10:56:36;3.85;;;3.15;;
11394;SDS011;5753;54.402;10.220;2023-05-07T11:04:28;5.35;;;2.60;;
11394;SDS011;5753;54.402;10.220;2023-05-07T11:12:17;3.75;;;3.45;;
11394;SDS011;5753;54.402;10.220;2023-05-07T11:15:05;3.22;;;2.78;;
11394;SDS011;5753;54.402;10.220;2023-05-07T11:17:52;3.67;;;2.33;;
11394;SDS011;5753;54.402;10.220;2023-05-07T11:20:44;3.45;;;2.15;;
11394;SDS011;5753;54.402;10.220;2023-05-07T11:26:01;2.17;;;1.77;;
11394;SDS011;5753;54.402;10.220;2023-05-07T11:28:36;2.50;;;2.33;;
11394;SDS011;5753;54.402;10.220;2023-05-07T11:31:04;2.97;;;2.67;;
11394;SDS011;5753;54.402;10.220;2023-05-07T11:33:30;2.55;;;2.33;;
11394;SDS011;5753;54.402;10.220;2023-05-07T11:35:57;2.67;;;2.47;;
11394;SDS011;5753;54.402;10.220;2023-05-07T11:38:24;3.50;;;2.30;;
11394;SDS011;5753;54.402;10.220;2023-05-07T11:40:51;2.50;;;1.90;;
11394;SDS011;5753;54.402;10.220;2023-05-07T11:43:18;4.03;;;1.95;;
11394;SDS011;5753;54.402;10.220;2023-05-07T11:45:45;3.55;;;1.88;;
11394;SDS011;5753;54.402;10.220;2023-05-07T11:48:14;3.22;;;2.45;;
11394;SDS011;5753;54.402;10.220;2023-05-07T11:50:50;3.22;;;1.77;;
11394;SDS011;5753;54.402;10.220;2023-05-07T11:53:27;3.83;;;3.42;;
11394;SDS011;5753;54.402;10.220;2023-05-07T11:56:00;4.25;;;2.30;;
11394;SDS011;5753;54.402;10.220;2023-05-07T11:58:31;3.92;;;2.53;;
11394;SDS011;5753;54.402;10.220;2023-05-07T12:00:57;2.13;;;1.95;;
11394;SDS011;5753;54.402;10.220;2023-05-07T12:03:23;2.78;;;2.55;;
11394;SDS011;5753;54.402;10.220;2023-05-07T12:05:49;2.20;;;1.55;;
11394;SDS011;5753;54.402;10.220;2023-05-07T12:08:18;2.55;;;2.35;;
11394;SDS011;5753;54.402;10.220;2023-05-07T12:10:45;5.38;;;3.20;;
11394;SDS011;5753;54.402;10.220;2023-05-07T12:13:31;5.07;;;4.40;;
11394;SDS011;5753;54.402;10.220;2023-05-07T12:15:57;3.78;;;3.33;;
11394;SDS011;5753;54.402;10.220;2023-05-07T12:18:24;5.97;;;4.18;;
11394;SDS011;5753;54.402;10.220;2023-05-07T12:20:50;5.07;;;4.13;;
11394;SDS011;5753;54.402;10.220;2023-05-07T12:23:17;6.32;;;4.47;;
11394;SDS011;5753;54.402;10.220;2023-05-07T12:25:43;4.50;;;3.15;;
11394;SDS011;5753;54.402;10.220;2023-05-07T12:28:16;4.55;;;3.72;;
11394;SDS011;5753;54.402;10.220;2023-05-07T12:30:43;3.67;;;2.90;;
11394;SDS011;5753;54.402;10.220;2023-05-07T12:33:11;6.82;;;4.72;;
11394;SDS011;5753;54.402;10.220;2023-05-07T12:35:41;5.85;;;3.05;;
11394;SDS011;5753;54.402;10.220;2023-05-07T12:38:08;6.82;;;3.75;;
11394;SDS011;5753;54.402;10.220;2023-05-07T12:40:36;5.35;;;4.07;;
11394;SDS011;5753;54.402;10.220;2023-05-07T12:43:04;4.15;;;3.47;;
11394;SDS011;5753;54.402;10.220;2023-05-07T12:45:31;6.85;;;3.33;;
11394;SDS011;5753;54.402;10.220;2023-05-07T12:48:01;5.13;;;4.10;;
11394;SDS011;5753;54.402;10.220;2023-05-07T12:50:30;4.07;;;2.90;;
11394;SDS011;5753;54.402;10.220;2023-05-07T12:52:58;9.50;;;4.47;;
11394;SDS011;5753;54.402;10.220;2023-05-07T12:55:24;7.38;;;4.45;;
11394;SDS011;5753;54.402;10.220;2023-05-07T12:57:50;6.05;;;3.30;;
11394;SDS011;5753;54.402;10.220;2023-05-07T13:00:32;7.18;;;4.53;;
11394;SDS011;5753;54.402;10.220;2023-05-07T13:03:01;5.65;;;4.43;;
11394;SDS011;5753;54.402;10.220;2023-05-07T13:05:28;5.47;;;2.90;;
11394;SDS011;5753;54.402;10.220;2023-05-07T13:07:54;8.60;;;3.42;;
11394;SDS011;5753;54.402;10.220;2023-05-07T13:10:21;5.80;;;2.92;;
11394;SDS011;5753;54.402;10.220;2023-05-07T13:12:48;10.27;;;4.38;;
11394;SDS011;5753;54.402;10.220;2023-05-07T13:15:15;6.00;;;4.38;;
11394;SDS011;5753;54.402;10.220;2023-05-07T13:17:41;7.00;;;4.85;;
11394;SDS011;5753;54.402;10.220;2023-05-07T13:20:11;6.32;;;3.80;;
11394;SDS011;5753;54.402;10.220;2023-05-07T13:22:40;5.82;;;3.67;;
11394;SDS011;5753;54.402;10.220;2023-05-07T13:25:06;4.82;;;4.03;;
11394;SDS011;5753;54.402;10.220;2023-05-07T13:27:33;4.38;;;3.80;;
11394;SDS011;5753;54.402;10.220;2023-05-07T13:30:02;6.32;;;4.20;;
11394;SDS011;5753;54.402;10.220;2023-05-07T13:32:29;6.15;;;4.85;;
11394;SDS011;5753;54.402;10.220;2023-05-07T13:34:56;10.77;;;5.50;;
11394;SDS011;5753;54.402;10.220;2023-05-07T13:37:22;4.95;;;4.18;;
11394;SDS011;5753;54.402;10.220;2023-05-07T13:39:48;8.20;;;5.15;;
11394;SDS011;5753;54.402;10.220;2023-05-07T13:42:14;8.10;;;4.70;;
11394;SDS011;5753;54.402;10.220;2023-05-07T13:44:40;5.43;;;3.63;;
11394;SDS011;5753;54.402;10.220;2023-05-07T13:47:08;7.03;;;4.55;;
11394;SDS011;5753;54.402;10.220;2023-05-07T13:49:35;5.70;;;4.53;;
11394;SDS011;5753;54.402;10.220;2023-05-07T13:52:01;3.65;;;3.33;;
11394;SDS011;5753;54.402;10.220;2023-05-07T13:54:28;5.63;;;3.85;;
11394;SDS011;5753;54.402;10.220;2023-05-07T13:56:54;5.15;;;4.20;;
11394;SDS011;5753;54.402;10.220;2023-05-07T13:59:20;8.25;;;4.57;;
11394;SDS011;5753;54.402;10.220;2023-05-07T14:01:46;7.63;;;4.07;;
11394;SDS011;5753;54.402;10.220;2023-05-07T14:04:12;4.38;;;3.17;;
11394;SDS011;5753;54.402;10.220;2023-05-07T14:06:39;6.57;;;5.38;;
11394;SDS011;5753;54.402;10.220;2023-05-07T14:09:05;5.82;;;3.78;;
11394;SDS011;5753;54.402;10.220;2023-05-07T14:11:31;7.60;;;4.25;;
11394;SDS011;5753;54.402;10.220;2023-05-07T14:13:57;4.60;;;4.15;;
11394;SDS011;5753;54.402;10.220;2023-05-07T14:16:23;7.82;;;5.07;;
11394;SDS011;5753;54.402;10.220;2023-05-07T14:18:49;4.95;;;4.50;;
11394;SDS011;5753;54.402;10.220;2023-05-07T14:21:15;5.28;;;4.50;;
11394;SDS011;5753;54.402;10.220;2023-05-07T14:23:41;4.35;;;3.60;;
11394;SDS011;5753;54.402;10.220;2023-05-07T14:26:07;6.63;;;4.75;;
11394;SDS011;5753;54.402;10.220;2023-05-07T14:28:33;5.63;;;3.60;;
11394;SDS011;5753;54.402;10.220;2023-05-07T14:31:00;9.57;;;5.60;;
11394;SDS011;5753;54.402;10.220;2023-05-07T14:33:26;4.80;;;3.90;;
11394;SDS011;5753;54.402;10.220;2023-05-07T14:35:52;9.27;;;5.00;;
11394;SDS011;5753;54.402;10.220;2023-05-07T14:38:18;4.70;;;4.30;;
11394;SDS011;5753;54.402;10.220;2023-05-07T14:40:44;5.60;;;4.05;;
11394;SDS011;5753;54.402;10.220;2023-05-07T14:43:10;7.05;;;4.47;;
11394;SDS011;5753;54.402;10.220;2023-05-07T14:45:36;4.57;;;3.80;;
11394;SDS011;5753;54.402;10.220;2023-05-07T14:48:03;6.63;;;3.58;;
11394;SDS011;5753;54.402;10.220;2023-05-07T14:50:29;5.55;;;4.47;;
11394;SDS011;5753;54.402;10.220;2023-05-07T14:52:55;6.22;;;4.68;;
11394;SDS011;5753;54.402;10.220;2023-05-07T14:55:22;5.15;;;4.50;;
11394;SDS011;5753;54.402;10.220;2023-05-07T14:57:48;7.78;;;4.22;;
11394;SDS011;5753;54.402;10.220;2023-05-07T15:00:14;5.28;;;3.80;;
11394;SDS011;5753;54.402;10.220;2023-05-07T15:02:40;9.52;;;4.80;;
11394;SDS011;5753;54.402;10.220;2023-05-07T15:05:06;9.90;;;4.65;;
11394;SDS011;5753;54.402;10.220;2023-05-07T15:07:33;7.07;;;4.95;;
11394;SDS011;5753;54.402;10.220;2023-05-07T15:09:59;9.15;;;4.55;;